This is the latest recevied weather packets stored in our database for station/object N3FAA. If no packets are shown the sender has not sent any weather packets the latest 10 day(s).
| Time | Temp. | Humidity | Pressure | Rain* | Wind** | Luminosity | Snow |
|---|---|---|---|---|---|---|---|
| 1777838654 | 18.89° C | 52% | 1009.2 hPa | 0 mm | - | 698 W/m² | - |
| 1777838352 | 18.89° C | 51% | 1009.3 hPa | 0 mm | - | 711 W/m² | - |
| 1777838049 | 18.89° C | 53% | 1009.2 hPa | 0 mm | - | 721 W/m² | - |
| 1777837745 | 18.89° C | 54% | 1009.3 hPa | 0 mm | - | 734 W/m² | - |
| 1777837442 | 18.89° C | 53% | 1009.4 hPa | 0 mm | - | 784 W/m² | - |
| 1777837138 | 17.78° C | 54% | 1009.4 hPa | 0 mm | - | 830 W/m² | - |
| 1777836833 | 18.89° C | 52% | 1009.5 hPa | 0 mm | - | 874 W/m² | - |
| 1777836529 | 19.44° C | 51% | 1009.8 hPa | 0 mm | - | 889 W/m² | - |
| 1777836225 | 18.33° C | 53% | 1009.5 hPa | 0 mm | - | 848 W/m² | - |
| 1777835922 | 18.33° C | 53% | 1009.4 hPa | 0 mm | - | 769 W/m² | - |
| 1777835619 | 18.89° C | 50% | 1009.4 hPa | 0 mm | - | 727 W/m² | - |
| 1777835315 | 18.33° C | 53% | 1009.4 hPa | 0 mm | - | 807 W/m² | - |
| 1777835013 | 18.33° C | 53% | 1009.4 hPa | 0 mm | - | 890 W/m² | - |
| 1777834710 | 17.78° C | 55% | 1009.3 hPa | 0 mm | - | 898 W/m² | - |
| 1777834405 | 18.33° C | 55% | 1009.4 hPa | 0 mm | - | 899 W/m² | - |
| 1777834100 | 17.78° C | 55% | 1009.1 hPa | 0 mm | - | 886 W/m² | - |
| 1777833796 | 17.78° C | 57% | 1009.3 hPa | 0 mm | - | 901 W/m² | - |
| 1777833492 | 17.78° C | 55% | 1009.5 hPa | 0 mm | - | 950 W/m² | - |
| 1777833189 | 17.78° C | 56% | 1009.6 hPa | 0 mm | - | 963 W/m² | - |
| 1777832887 | 17.78° C | 57% | 1009.6 hPa | 0 mm | - | 973 W/m² | - |
| 1777832586 | 17.78° C | 57% | 1010 hPa | 0 mm | - | 977 W/m² | - |
| 1777832283 | 17.22° C | 59% | 1009.8 hPa | 0 mm | - | 973 W/m² | - |
| 1777831980 | 17.22° C | 60% | 1010.1 hPa | 0 mm | - | 976 W/m² | - |
| 1777831676 | 16.67° C | 59% | 1009.6 hPa | 0 mm | - | 1009 W/m² | - |
| 1777831374 | 16.67° C | 61% | 1009.9 hPa | 0 mm | - | 1016 W/m² | - |
* Rain latest hour (hover to see other rain measurements)
** Current wind speed in m/s (hover to see current wind gust speed)